Time;durP1;ratioP1;P1;durP2;ratioP2;P2;SDS_P1;SDS_P2;PMS_P1;PMS_P2;Temp;Humidity;BMP_temperature;BMP_pressure;BME280_temperature;BME280_humidity;BME280_pressure;Samples;Min_cycle;Max_cycle;Signal;HPM_P1;HPM_P2
2022/09/21 00:00:45;;;;;;;13.00;3.72;;;;;;;;;;4983993;28;20043;-78
2022/09/21 00:03:13;;;;;;;27.67;3.70;;;;;;;;;;4982768;28;20045;-79
2022/09/21 00:05:41;;;;;;;8.23;3.67;;;;;;;;;;4984630;28;20050;-78
2022/09/21 00:08:10;;;;;;;15.32;4.15;;;;;;;;;;4980225;28;20126;-79
2022/09/21 00:10:37;;;;;;;12.00;4.57;;;;;;;;;;4985426;28;20040;-78
2022/09/21 00:13:05;;;;;;;9.18;3.30;;;;;;;;;;4978815;28;20133;-78
2022/09/21 00:15:32;;;;;;;4.90;4.50;;;;;;;;;;4985174;28;20042;-78
2022/09/21 00:18:00;;;;;;;9.18;3.95;;;;;;;;;;4981965;28;20042;-79
2022/09/21 00:20:28;;;;;;;15.40;4.10;;;;;;;;;;4984317;28;20048;-78
2022/09/21 00:22:55;;;;;;;13.45;3.63;;;;;;;;;;4980092;28;20149;-77
2022/09/21 00:25:23;;;;;;;18.35;3.33;;;;;;;;;;4982846;28;20070;-78
2022/09/21 00:27:50;;;;;;;4.72;3.30;;;;;;;;;;4981371;28;20129;-78
2022/09/21 00:30:18;;;;;;;7.30;4.43;;;;;;;;;;4985596;28;20038;-78
2022/09/21 00:32:45;;;;;;;6.65;4.63;;;;;;;;;;4984334;28;20039;-78
2022/09/21 00:35:12;;;;;;;15.48;3.80;;;;;;;;;;4984607;28;20074;-78
2022/09/21 00:37:40;;;;;;;19.38;4.28;;;;;;;;;;4986468;28;20137;-78
2022/09/21 00:40:07;;;;;;;6.47;5.00;;;;;;;;;;4986635;28;20073;-78
2022/09/21 00:42:35;;;;;;;8.73;5.05;;;;;;;;;;4985674;28;20053;-78
2022/09/21 00:45:02;;;;;;;5.50;4.10;;;;;;;;;;4961508;28;20051;-78
2022/09/21 00:47:56;;;;;;;5.38;3.83;;;;;;;;;;4979676;28;20093;-78
2022/09/21 00:50:24;;;;;;;14.65;4.43;;;;;;;;;;4981330;28;20054;-78
2022/09/21 00:52:53;;;;;;;4.93;4.60;;;;;;;;;;4986032;28;20096;-78
2022/09/21 00:55:32;;;;;;;10.05;5.20;;;;;;;;;;4982282;28;20046;-78
2022/09/21 00:58:02;;;;;;;4.68;4.18;;;;;;;;;;4984267;28;20069;-79
2022/09/21 01:00:29;;;;;;;7.38;4.50;;;;;;;;;;4986284;28;20038;-78
2022/09/21 01:03:00;;;;;;;8.27;4.15;;;;;;;;;;4952589;28;20137;-78
2022/09/21 01:05:28;;;;;;;6.88;3.72;;;;;;;;;;4989146;28;20043;-78
2022/09/21 01:07:56;;;;;;;3.88;3.67;;;;;;;;;;4990935;28;20129;-78
2022/09/21 01:10:26;;;;;;;14.68;4.13;;;;;;;;;;4991644;28;20066;-78
2022/09/21 01:13:04;;;;;;;8.57;4.57;;;;;;;;;;4988042;28;20051;-78
2022/09/21 01:15:36;;;;;;;4.63;4.22;;;;;;;;;;4986814;28;20093;-78
2022/09/21 01:18:15;;;;;;;4.97;4.57;;;;;;;;;;4986896;28;20051;-78
2022/09/21 01:20:42;;;;;;;6.68;5.22;;;;;;;;;;4992069;28;20046;-78
2022/09/21 01:23:30;;;;;;;5.55;5.13;;;;;;;;;;4990008;28;20721;-78
2022/09/21 01:26:00;;;;;;;6.32;5.20;;;;;;;;;;4984152;28;20082;-78
2022/09/21 01:28:46;;;;;;;5.88;5.38;;;;;;;;;;4987314;28;20062;-78
2022/09/21 01:31:16;;;;;;;5.57;4.40;;;;;;;;;;4984896;28;20198;-78
2022/09/21 01:33:47;;;;;;;5.50;5.00;;;;;;;;;;4986312;28;20054;-77
2022/09/21 01:36:17;;;;;;;6.38;3.97;;;;;;;;;;4985991;28;20050;-77
2022/09/21 01:38:45;;;;;;;15.82;5.72;;;;;;;;;;4987246;28;20129;-77
2022/09/21 01:41:14;;;;;;;7.60;5.20;;;;;;;;;;4985143;28;20047;-77
2022/09/21 01:43:43;;;;;;;6.68;5.05;;;;;;;;;;5000047;28;20740;-77
2022/09/21 01:46:13;;;;;;;9.20;5.88;;;;;;;;;;5002732;28;20124;-77
2022/09/21 01:48:43;;;;;;;8.15;6.53;;;;;;;;;;5003435;28;20073;-76
2022/09/21 01:51:13;;;;;;;16.42;5.85;;;;;;;;;;4999376;28;20027;-77
2022/09/21 01:53:43;;;;;;;25.92;6.00;;;;;;;;;;4998398;28;20566;-79
2022/09/21 01:56:18;;;;;;;7.05;6.18;;;;;;;;;;4991168;28;20035;-78
2022/09/21 01:58:49;;;;;;;7.65;5.93;;;;;;;;;;4981471;28;20755;-78
2022/09/21 02:01:19;;;;;;;10.87;6.20;;;;;;;;;;4980613;28;20610;-79
2022/09/21 02:03:49;;;;;;;8.05;6.22;;;;;;;;;;4984123;28;20331;-77
2022/09/21 02:06:17;;;;;;;5.78;5.28;;;;;;;;;;4980421;28;20045;-78
2022/09/21 02:08:45;;;;;;;7.35;4.25;;;;;;;;;;4983194;28;20046;-78
2022/09/21 02:11:12;;;;;;;4.70;4.38;;;;;;;;;;4980745;28;20117;-78
2022/09/21 02:13:44;;;;;;;14.75;4.18;;;;;;;;;;4980480;28;20085;-78
2022/09/21 02:16:31;;;;;;;4.80;4.38;;;;;;;;;;4983217;28;20046;-78
2022/09/21 02:19:10;;;;;;;7.68;4.45;;;;;;;;;;4985395;28;20042;-78
2022/09/21 02:21:43;;;;;;;4.97;4.60;;;;;;;;;;4981245;28;20076;-77
2022/09/21 02:24:33;;;;;;;10.45;4.85;;;;;;;;;;4979923;28;20043;-78
2022/09/21 02:27:05;;;;;;;7.25;4.47;;;;;;;;;;4966259;28;20046;-78
2022/09/21 02:29:51;;;;;;;11.68;4.60;;;;;;;;;;4984619;28;20419;-78
2022/09/21 02:32:22;;;;;;;6.70;4.60;;;;;;;;;;4983430;28;20122;-78
2022/09/21 02:34:54;;;;;;;8.23;4.35;;;;;;;;;;4985177;28;20046;-77
2022/09/21 02:37:24;;;;;;;6.00;4.28;;;;;;;;;;4982138;28;20043;-78
2022/09/21 02:39:58;;;;;;;7.97;4.70;;;;;;;;;;4984013;28;20068;-77
2022/09/21 02:42:29;;;;;;;4.72;4.35;;;;;;;;;;4982433;28;20050;-77
2022/09/21 02:45:00;;;;;;;14.05;4.72;;;;;;;;;;4984247;28;20042;-77
2022/09/21 02:47:38;;;;;;;10.57;5.43;;;;;;;;;;4980324;28;20496;-77
2022/09/21 02:50:09;;;;;;;5.80;4.88;;;;;;;;;;4981222;28;20415;-76
2022/09/21 02:52:39;;;;;;;7.82;4.60;;;;;;;;;;4964273;28;20047;-77
2022/09/21 02:55:07;;;;;;;11.60;5.00;;;;;;;;;;4979876;28;20073;-77
2022/09/21 02:57:35;;;;;;;14.00;4.60;;;;;;;;;;4984276;28;20133;-77
2022/09/21 03:00:03;;;;;;;11.15;5.15;;;;;;;;;;4982297;28;20130;-77
2022/09/21 03:02:41;;;;;;;8.25;4.78;;;;;;;;;;4983434;28;21108;-77
2022/09/21 03:05:09;;;;;;;12.38;4.80;;;;;;;;;;4980534;28;20039;-77
2022/09/21 03:07:36;;;;;;;6.35;4.25;;;;;;;;;;4988128;28;20080;-76
2022/09/21 03:10:07;;;;;;;9.88;4.35;;;;;;;;;;4987616;28;20065;-78
2022/09/21 03:12:34;;;;;;;5.72;4.20;;;;;;;;;;4988939;28;20046;-78
2022/09/21 03:15:01;;;;;;;3.90;3.58;;;;;;;;;;4998973;28;20080;-78
2022/09/21 03:17:28;;;;;;;4.78;3.13;;;;;;;;;;4988356;28;20052;-78
2022/09/21 03:19:56;;;;;;;4.20;3.85;;;;;;;;;;4989872;28;20046;-78
2022/09/21 03:22:23;;;;;;;8.02;4.07;;;;;;;;;;4990539;28;20053;-78
2022/09/21 03:24:52;;;;;;;5.45;4.07;;;;;;;;;;4985593;28;20125;-78
2022/09/21 03:27:21;;;;;;;4.60;4.07;;;;;;;;;;4986699;28;20049;-78
2022/09/21 03:29:48;;;;;;;4.82;3.85;;;;;;;;;;4987122;28;20039;-78
2022/09/21 03:32:15;;;;;;;6.20;4.35;;;;;;;;;;4988932;28;20066;-78
2022/09/21 03:34:43;;;;;;;4.25;3.88;;;;;;;;;;5001732;28;20128;-78
2022/09/21 03:37:10;;;;;;;4.85;4.32;;;;;;;;;;4985992;28;20081;-78
2022/09/21 03:39:38;;;;;;;7.15;3.65;;;;;;;;;;4989488;28;20053;-77
2022/09/21 03:42:05;;;;;;;6.55;3.88;;;;;;;;;;4986624;28;20241;-78
2022/09/21 03:44:32;;;;;;;5.78;3.90;;;;;;;;;;4985745;28;20478;-78
2022/09/21 03:46:59;;;;;;;5.57;4.63;;;;;;;;;;4972158;28;20141;-77
2022/09/21 03:49:28;;;;;;;6.88;3.92;;;;;;;;;;4985836;28;20050;-78
2022/09/21 03:51:55;;;;;;;5.70;5.20;;;;;;;;;;4989164;28;20125;-78
2022/09/21 03:54:24;;;;;;;6.43;4.00;;;;;;;;;;4982678;28;20051;-76
2022/09/21 03:56:51;;;;;;;12.55;3.63;;;;;;;;;;4985156;28;20117;-77
2022/09/21 03:59:19;;;;;;;6.43;4.63;;;;;;;;;;4985313;28;20084;-78
2022/09/21 04:01:46;;;;;;;7.30;4.07;;;;;;;;;;4986589;28;20516;-77
2022/09/21 04:04:15;;;;;;;4.82;4.20;;;;;;;;;;4984172;28;20512;-77
2022/09/21 04:06:45;;;;;;;3.90;3.40;;;;;;;;;;4988890;28;20070;-77
2022/09/21 04:09:12;;;;;;;9.82;4.28;;;;;;;;;;4989135;28;20325;-77
2022/09/21 04:11:39;;;;;;;9.80;5.03;;;;;;;;;;4988260;28;20137;-77
2022/09/21 04:14:07;;;;;;;6.00;3.78;;;;;;;;;;4985196;28;20124;-78
2022/09/21 04:16:34;;;;;;;4.78;3.97;;;;;;;;;;4986238;28;20137;-78
2022/09/21 04:19:03;;;;;;;3.65;3.45;;;;;;;;;;4980987;28;20113;-78
2022/09/21 04:21:31;;;;;;;3.53;3.30;;;;;;;;;;4984158;28;20774;-78
2022/09/21 04:24:00;;;;;;;3.78;3.47;;;;;;;;;;4989272;28;20038;-78
2022/09/21 04:26:30;;;;;;;3.42;3.20;;;;;;;;;;4970754;28;20042;-78
2022/09/21 04:28:58;;;;;;;3.53;3.33;;;;;;;;;;4986427;28;20077;-78
2022/09/21 04:31:25;;;;;;;3.67;3.38;;;;;;;;;;4988992;28;20043;-78
2022/09/21 04:33:54;;;;;;;4.00;3.70;;;;;;;;;;4986277;28;20045;-78
2022/09/21 04:36:22;;;;;;;3.03;2.92;;;;;;;;;;4987008;28;20504;-78
2022/09/21 04:38:49;;;;;;;6.05;4.20;;;;;;;;;;4986732;28;20050;-78
2022/09/21 04:41:17;;;;;;;4.15;3.53;;;;;;;;;;4989377;28;20147;-78
2022/09/21 04:43:45;;;;;;;4.15;3.75;;;;;;;;;;4988942;28;20431;-78
2022/09/21 04:46:13;;;;;;;3.85;3.55;;;;;;;;;;4988138;28;20125;-78
2022/09/21 04:48:41;;;;;;;11.93;5.13;;;;;;;;;;4989830;28;20052;-78
2022/09/21 04:51:09;;;;;;;7.60;3.55;;;;;;;;;;4987897;28;20074;-78
2022/09/21 04:53:37;;;;;;;5.35;3.50;;;;;;;;;;4985045;28;20049;-78
2022/09/21 04:56:05;;;;;;;4.20;3.55;;;;;;;;;;4985816;28;20117;-78
2022/09/21 04:58:32;;;;;;;3.92;3.63;;;;;;;;;;4987072;28;20046;-78
2022/09/21 05:01:00;;;;;;;4.88;3.00;;;;;;;;;;4989632;28;20073;-78
2022/09/21 05:03:28;;;;;;;8.25;3.35;;;;;;;;;;4983644;28;20042;-78
2022/09/21 05:05:56;;;;;;;3.88;3.60;;;;;;;;;;4985427;28;20043;-78
2022/09/21 05:11:12;;;;;;;6.28;3.53;;;;;;;;;;4991131;28;20046;-78
2022/09/21 05:13:42;;;;;;;4.85;3.88;;;;;;;;;;4986499;28;20038;-78
2022/09/21 05:16:09;;;;;;;6.50;3.80;;;;;;;;;;4997802;28;20065;-78
2022/09/21 05:18:37;;;;;;;4.90;3.92;;;;;;;;;;4985212;28;20050;-79
2022/09/21 05:21:05;;;;;;;6.20;3.70;;;;;;;;;;4986974;28;20046;-78
2022/09/21 05:23:33;;;;;;;4.20;3.70;;;;;;;;;;4973266;28;20058;-79
2022/09/21 05:26:00;;;;;;;5.20;3.80;;;;;;;;;;4977546;23;20126;-82
2022/09/21 05:28:28;;;;;;;14.15;4.40;;;;;;;;;;4975986;28;20066;-82
2022/09/21 05:30:55;;;;;;;4.40;4.05;;;;;;;;;;5009634;23;20133;-71
2022/09/21 05:33:54;;;;;;;9.48;4.18;;;;;;;;;;4991497;28;20749;-71
2022/09/21 05:36:35;;;;;;;5.07;4.10;;;;;;;;;;4989418;28;20050;-71
2022/09/21 05:39:03;;;;;;;6.78;4.13;;;;;;;;;;4980891;28;20046;-71
2022/09/21 05:41:30;;;;;;;5.90;4.63;;;;;;;;;;4994887;28;20050;-72
2022/09/21 05:43:58;;;;;;;6.88;4.47;;;;;;;;;;5002080;28;20126;-71
2022/09/21 05:46:34;;;;;;;7.35;4.32;;;;;;;;;;4999023;28;20037;-72
2022/09/21 05:49:08;;;;;;;8.30;3.90;;;;;;;;;;5004684;28;20667;-71
2022/09/21 05:51:40;;;;;;;4.38;4.07;;;;;;;;;;5001477;28;20042;-71
2022/09/21 05:54:19;;;;;;;11.68;4.53;;;;;;;;;;5004723;28;20113;-71
2022/09/21 05:56:47;;;;;;;17.30;4.00;;;;;;;;;;5002463;28;20045;-71
2022/09/21 05:59:33;;;;;;;9.82;4.20;;;;;;;;;;4994242;28;20048;-71
2022/09/21 06:02:14;;;;;;;23.50;3.80;;;;;;;;;;5003552;28;20050;-71
2022/09/21 06:04:41;;;;;;;25.40;4.65;;;;;;;;;;5003719;28;20045;-71
2022/09/21 06:07:08;;;;;;;14.15;3.95;;;;;;;;;;4998921;28;20579;-72
2022/09/21 06:09:35;;;;;;;6.15;4.55;;;;;;;;;;4997883;28;20073;-71
2022/09/21 06:12:10;;;;;;;13.60;4.40;;;;;;;;;;5017655;28;20536;-71
2022/09/21 06:14:37;;;;;;;10.52;4.47;;;;;;;;;;5001337;28;20050;-70
2022/09/21 06:17:04;;;;;;;4.97;4.22;;;;;;;;;;5001795;28;20064;-71
2022/09/21 06:19:32;;;;;;;3.88;3.67;;;;;;;;;;5005633;28;20054;-71
2022/09/21 06:22:00;;;;;;;10.70;4.40;;;;;;;;;;4997376;28;20053;-72
2022/09/21 06:24:27;;;;;;;4.45;4.07;;;;;;;;;;5002776;28;20133;-71
2022/09/21 06:26:54;;;;;;;10.90;3.85;;;;;;;;;;5003936;28;20041;-72
2022/09/21 06:29:22;;;;;;;4.53;4.22;;;;;;;;;;5008389;28;20045;-72
2022/09/21 06:31:50;;;;;;;4.85;4.45;;;;;;;;;;4999821;28;20101;-72
2022/09/21 06:34:18;;;;;;;6.60;4.75;;;;;;;;;;5001303;28;20069;-73
2022/09/21 06:36:45;;;;;;;4.85;4.45;;;;;;;;;;5001778;28;20045;-71
2022/09/21 06:39:12;;;;;;;6.40;5.35;;;;;;;;;;5009898;28;20524;-72
2022/09/21 06:41:40;;;;;;;5.55;4.75;;;;;;;;;;5000949;28;20481;-72
2022/09/21 06:44:10;;;;;;;5.88;4.55;;;;;;;;;;5000497;28;20065;-73
2022/09/21 06:46:37;;;;;;;5.13;4.60;;;;;;;;;;4995354;28;20048;-72
2022/09/21 06:49:04;;;;;;;4.43;4.10;;;;;;;;;;5002554;28;20046;-72
2022/09/21 06:51:32;;;;;;;5.20;4.70;;;;;;;;;;5003241;28;20049;-72
2022/09/21 06:54:00;;;;;;;4.82;4.30;;;;;;;;;;4997523;28;20141;-73
2022/09/21 06:56:27;;;;;;;4.82;4.43;;;;;;;;;;4997172;28;20675;-72
2022/09/21 06:58:54;;;;;;;8.10;5.45;;;;;;;;;;4990269;28;20459;-72
2022/09/21 07:01:23;;;;;;;4.93;4.53;;;;;;;;;;5003726;28;20080;-72
2022/09/21 07:03:51;;;;;;;6.63;4.50;;;;;;;;;;5008089;28;20410;-72
2022/09/21 07:06:19;;;;;;;6.32;4.65;;;;;;;;;;5007792;28;20169;-72
2022/09/21 07:08:47;;;;;;;5.13;4.72;;;;;;;;;;5007881;28;20556;-72
2022/09/21 07:11:34;;;;;;;5.38;4.85;;;;;;;;;;4996912;28;20419;-72
2022/09/21 07:14:03;;;;;;;3.97;3.72;;;;;;;;;;4982384;28;20053;-74
2022/09/21 07:16:30;;;;;;;4.95;4.28;;;;;;;;;;4982562;28;20053;-72
2022/09/21 07:18:58;;;;;;;6.78;4.85;;;;;;;;;;4973983;28;20054;-72
2022/09/21 07:21:37;;;;;;;4.88;4.40;;;;;;;;;;4988405;28;20049;-71
2022/09/21 07:24:04;;;;;;;4.22;3.92;;;;;;;;;;4992160;28;20042;-72
2022/09/21 07:26:38;;;;;;;4.03;3.72;;;;;;;;;;4991134;28;20042;-72
2022/09/21 07:29:06;;;;;;;7.13;4.18;;;;;;;;;;4996004;28;20116;-72
2022/09/21 07:31:33;;;;;;;4.50;4.20;;;;;;;;;;4999087;28;20091;-72
2022/09/21 07:34:01;;;;;;;3.88;3.58;;;;;;;;;;4996908;28;20218;-72
2022/09/21 07:36:28;;;;;;;8.48;7.78;;;;;;;;;;4995795;28;20061;-73
2022/09/21 07:38:55;;;;;;;3.65;3.45;;;;;;;;;;4997388;28;20049;-73
2022/09/21 07:41:23;;;;;;;4.10;3.80;;;;;;;;;;5007339;28;20041;-73
2022/09/21 07:43:52;;;;;;;5.05;4.30;;;;;;;;;;4994578;28;20458;-73
2022/09/21 07:46:19;;;;;;;5.03;4.63;;;;;;;;;;4991926;28;20501;-73
2022/09/21 07:48:47;;;;;;;4.22;3.92;;;;;;;;;;4998188;28;20096;-73
2022/09/21 07:51:15;;;;;;;3.72;3.42;;;;;;;;;;5005681;28;20129;-74
2022/09/21 07:53:46;;;;;;;3.78;3.58;;;;;;;;;;5007467;28;20103;-73
2022/09/21 07:56:14;;;;;;;3.75;3.50;;;;;;;;;;5006388;28;20150;-71
2022/09/21 08:01:30;;;;;;;3.75;3.45;;;;;;;;;;5004881;28;20057;-73
2022/09/21 08:03:57;;;;;;;5.22;3.60;;;;;;;;;;4999979;28;20093;-73
2022/09/21 08:06:26;;;;;;;3.30;3.10;;;;;;;;;;4985713;28;20039;-74
2022/09/21 08:08:53;;;;;;;3.50;3.30;;;;;;;;;;4996051;28;20049;-74
2022/09/21 08:11:24;;;;;;;3.40;3.20;;;;;;;;;;4989935;28;20050;-74
2022/09/21 08:13:53;;;;;;;4.22;3.83;;;;;;;;;;4987784;28;20050;-72
2022/09/21 08:16:20;;;;;;;3.63;3.35;;;;;;;;;;4987657;28;20174;-71
2022/09/21 08:18:49;;;;;;;4.38;3.70;;;;;;;;;;4987588;28;20145;-71
2022/09/21 08:21:17;;;;;;;3.85;3.55;;;;;;;;;;4986248;28;20046;-71
2022/09/21 08:23:44;;;;;;;3.53;3.33;;;;;;;;;;4985864;28;20055;-71
2022/09/21 08:26:17;;;;;;;4.05;3.75;;;;;;;;;;4996093;28;20048;-72
2022/09/21 08:28:48;;;;;;;3.83;3.50;;;;;;;;;;5005695;28;20053;-72
2022/09/21 08:31:16;;;;;;;6.13;4.35;;;;;;;;;;5005791;28;20390;-71
2022/09/21 08:33:43;;;;;;;3.92;3.70;;;;;;;;;;5007239;28;20136;-72
2022/09/21 08:36:11;;;;;;;3.97;3.58;;;;;;;;;;4999027;28;20183;-72
2022/09/21 08:38:38;;;;;;;4.35;3.95;;;;;;;;;;4993331;28;20046;-72
2022/09/21 08:41:20;;;;;;;3.75;3.45;;;;;;;;;;5006884;28;20056;-72
2022/09/21 08:43:50;;;;;;;4.50;4.20;;;;;;;;;;5003689;28;20045;-72
2022/09/21 08:46:22;;;;;;;7.72;3.08;;;;;;;;;;4985816;28;20045;-71
2022/09/21 08:48:56;;;;;;;3.45;3.08;;;;;;;;;;4985934;28;20510;-72
2022/09/21 08:51:25;;;;;;;3.55;3.25;;;;;;;;;;4994885;28;20116;-71
2022/09/21 08:53:56;;;;;;;3.70;3.42;;;;;;;;;;4986184;28;20066;-72
2022/09/21 08:56:25;;;;;;;3.33;3.13;;;;;;;;;;4986631;28;20080;-72
2022/09/21 08:59:14;;;;;;;3.20;2.95;;;;;;;;;;4997725;28;20097;-72
2022/09/21 09:01:58;;;;;;;3.92;3.45;;;;;;;;;;4970654;28;20286;-72
2022/09/21 09:04:35;;;;;;;4.65;3.17;;;;;;;;;;4994412;28;20053;-72
2022/09/21 09:07:05;;;;;;;3.10;2.90;;;;;;;;;;4993183;28;20042;-72
2022/09/21 09:09:36;;;;;;;4.47;4.07;;;;;;;;;;4987365;28;20092;-73
2022/09/21 09:12:24;;;;;;;3.40;3.13;;;;;;;;;;4988560;28;20039;-72
2022/09/21 09:15:03;;;;;;;3.78;3.22;;;;;;;;;;4996839;28;20410;-72
2022/09/21 09:17:36;;;;;;;3.92;3.63;;;;;;;;;;5000709;28;20046;-73
2022/09/21 09:20:06;;;;;;;3.55;3.25;;;;;;;;;;4990344;28;20048;-73
2022/09/21 09:22:39;;;;;;;2.97;2.78;;;;;;;;;;4999501;28;20417;-72
2022/09/21 09:25:16;;;;;;;3.33;3.03;;;;;;;;;;4998636;28;20046;-73
2022/09/21 09:27:45;;;;;;;2.97;2.78;;;;;;;;;;4999068;28;20042;-73
2022/09/21 09:30:12;;;;;;;3.00;2.80;;;;;;;;;;4981832;28;20050;-74
2022/09/21 09:32:49;;;;;;;3.10;2.90;;;;;;;;;;4960620;28;20149;-73
2022/09/21 09:35:16;;;;;;;3.58;3.28;;;;;;;;;;4991553;28;20048;-73
2022/09/21 09:37:45;;;;;;;3.30;3.00;;;;;;;;;;5003277;28;20405;-72
2022/09/21 09:40:13;;;;;;;3.28;3.08;;;;;;;;;;5004329;28;20416;-73
2022/09/21 09:42:44;;;;;;;3.75;3.45;;;;;;;;;;5001937;28;20050;-74
2022/09/21 09:45:36;;;;;;;3.13;2.92;;;;;;;;;;4995950;28;20413;-72
2022/09/21 09:48:04;;;;;;;;;;;;;;;;;;4992308;28;20042;-72
2022/09/21 09:50:35;;;;;;;3.45;3.13;;;;;;;;;;4990823;28;19934;-73
2022/09/21 09:53:03;;;;;;;;;;;;;;;;;;5006348;28;20050;-73
2022/09/21 09:55:42;;;;;;;3.42;3.05;;;;;;;;;;5006467;28;19929;-73
2022/09/21 09:58:20;;;;;;;3.25;3.05;;;;;;;;;;4996601;28;20046;-73
2022/09/21 10:00:51;;;;;;;3.13;2.83;;;;;;;;;;4972828;28;20045;-72
2022/09/21 10:03:26;;;;;;;3.58;3.25;;;;;;;;;;4999695;28;20052;-73
2022/09/21 10:05:54;;;;;;;3.28;3.08;;;;;;;;;;4993629;28;20092;-73
2022/09/21 10:08:30;;;;;;;3.55;2.92;;;;;;;;;;5001369;28;20685;-73
2022/09/21 10:10:57;;;;;;;3.05;2.85;;;;;;;;;;4994261;28;20085;-72
2022/09/21 10:13:25;;;;;;;3.00;2.80;;;;;;;;;;5005659;28;20064;-71
2022/09/21 10:15:55;;;;;;;6.18;2.67;;;;;;;;;;4976053;28;20050;-73
2022/09/21 10:18:24;;;;;;;2.90;2.70;;;;;;;;;;4993295;28;20054;-72
2022/09/21 10:20:55;;;;;;;4.65;3.03;;;;;;;;;;4993675;28;20034;-73
2022/09/21 10:23:22;;;;;;;3.00;2.80;;;;;;;;;;5001238;28;20565;-73
2022/09/21 10:26:04;;;;;;;3.00;2.55;;;;;;;;;;4990597;28;20520;-73
2022/09/21 10:28:33;;;;;;;3.63;2.70;;;;;;;;;;5006591;28;20042;-71
2022/09/21 10:31:12;;;;;;;2.90;2.72;;;;;;;;;;5002342;28;20113;-72
2022/09/21 10:33:50;;;;;;;2.60;2.50;;;;;;;;;;4990481;28;20077;-73
2022/09/21 10:36:25;;;;;;;3.28;3.08;;;;;;;;;;5006416;28;20050;-73
2022/09/21 10:38:53;;;;;;;2.95;2.75;;;;;;;;;;5006465;28;20042;-73
2022/09/21 10:41:20;;;;;;;3.17;2.97;;;;;;;;;;5005549;28;20501;-73
2022/09/21 10:43:49;;;;;;;3.40;3.10;;;;;;;;;;4988200;28;20049;-72
2022/09/21 10:46:17;;;;;;;4.63;2.97;;;;;;;;;;4988012;28;20074;-72
2022/09/21 10:48:46;;;;;;;3.00;2.60;;;;;;;;;;4986036;28;20044;-72
2022/09/21 10:51:26;;;;;;;2.72;2.47;;;;;;;;;;4989961;28;20046;-72
2022/09/21 10:53:53;;;;;;;2.83;2.65;;;;;;;;;;4997941;28;20053;-72
2022/09/21 10:56:20;;;;;;;4.35;3.08;;;;;;;;;;5000920;28;20410;-73
2022/09/21 10:59:07;;;;;;;3.70;2.65;;;;;;;;;;5004687;28;20042;-72
2022/09/21 11:01:34;;;;;;;4.72;2.70;;;;;;;;;;5009281;28;20064;-73
2022/09/21 11:04:06;;;;;;;2.90;2.70;;;;;;;;;;5002801;28;20046;-73
2022/09/21 11:06:41;;;;;;;2.85;2.65;;;;;;;;;;5007389;28;20485;-72
2022/09/21 11:09:12;;;;;;;3.40;3.05;;;;;;;;;;5007129;28;20046;-70
2022/09/21 11:11:49;;;;;;;3.65;2.83;;;;;;;;;;5007634;28;20053;-72
2022/09/21 11:14:38;;;;;;;3.90;3.60;;;;;;;;;;4986636;28;20449;-72
2022/09/21 11:17:17;;;;;;;4.28;2.78;;;;;;;;;;4986300;28;20090;-72
2022/09/21 11:19:44;;;;;;;3.10;2.33;;;;;;;;;;4985651;28;20050;-72
2022/09/21 11:22:18;;;;;;;2.65;2.42;;;;;;;;;;4985345;28;20054;-72
2022/09/21 11:24:50;;;;;;;5.53;2.83;;;;;;;;;;4986914;28;20050;-72
2022/09/21 11:27:22;;;;;;;4.47;3.10;;;;;;;;;;5015629;23;20128;-70
2022/09/21 11:29:50;;;;;;;3.72;2.83;;;;;;;;;;5006484;28;20053;-70
2022/09/21 11:32:20;;;;;;;4.20;2.70;;;;;;;;;;5008015;28;20045;-71
2022/09/21 11:35:07;;;;;;;2.50;2.30;;;;;;;;;;4997668;28;20034;-71
2022/09/21 11:37:35;;;;;;;2.33;2.13;;;;;;;;;;4990827;28;20053;-70
2022/09/21 11:40:21;;;;;;;2.65;1.90;;;;;;;;;;5006162;28;20068;-71
2022/09/21 11:43:00;;;;;;;3.22;2.40;;;;;;;;;;4990227;28;20061;-70
2022/09/21 11:45:37;;;;;;;4.88;2.53;;;;;;;;;;4981797;28;20049;-71
2022/09/21 11:48:27;;;;;;;2.80;2.30;;;;;;;;;;4985148;28;20167;-71
2022/09/21 11:51:12;;;;;;;3.47;2.67;;;;;;;;;;4986368;28;20056;-71
2022/09/21 11:53:48;;;;;;;4.28;3.88;;;;;;;;;;4985247;28;20054;-71
2022/09/21 11:56:16;;;;;;;10.63;9.55;;;;;;;;;;4984484;28;20046;-71
2022/09/21 11:58:47;;;;;;;4.95;3.90;;;;;;;;;;4984130;28;20557;-71
2022/09/21 12:01:38;;;;;;;2.60;2.40;;;;;;;;;;4985626;28;20402;-71
2022/09/21 12:04:25;;;;;;;2.70;2.50;;;;;;;;;;4988349;28;20050;-71
2022/09/21 12:06:53;;;;;;;3.30;2.40;;;;;;;;;;5005986;28;20052;-71
2022/09/21 12:09:26;;;;;;;3.60;2.03;;;;;;;;;;5006237;28;20390;-70
2022/09/21 12:12:01;;;;;;;3.92;2.10;;;;;;;;;;5004518;28;20053;-71
2022/09/21 12:14:48;;;;;;;1.90;1.80;;;;;;;;;;5003716;28;20121;-71
2022/09/21 12:17:15;;;;;;;3.00;1.88;;;;;;;;;;5004134;28;20091;-71
2022/09/21 12:19:55;;;;;;;2.33;2.20;;;;;;;;;;5004067;28;20052;-70
2022/09/21 12:22:22;;;;;;;2.58;2.30;;;;;;;;;;5006757;28;20045;-71
2022/09/21 12:24:51;;;;;;;2.30;2.10;;;;;;;;;;5006890;28;20489;-71
2022/09/21 12:27:19;;;;;;;1.75;1.58;;;;;;;;;;5005606;28;20057;-70
2022/09/21 12:29:49;;;;;;;3.47;2.10;;;;;;;;;;5006639;28;20489;-70
2022/09/21 12:32:23;;;;;;;2.10;1.70;;;;;;;;;;5006957;28;20487;-71
2022/09/21 12:34:54;;;;;;;1.95;1.85;;;;;;;;;;5004852;28;20308;-70
2022/09/21 12:37:24;;;;;;;5.20;2.25;;;;;;;;;;5006444;28;20042;-70
2022/09/21 12:40:05;;;;;;;4.60;2.00;;;;;;;;;;5005626;28;20057;-70
2022/09/21 12:42:50;;;;;;;1.95;1.85;;;;;;;;;;5005552;28;20346;-70
2022/09/21 12:45:24;;;;;;;1.92;1.83;;;;;;;;;;5006500;28;20462;-70
2022/09/21 12:47:59;;;;;;;1.90;1.67;;;;;;;;;;5007330;28;20045;-70
2022/09/21 12:50:38;;;;;;;2.63;1.63;;;;;;;;;;5006311;28;20053;-70
2022/09/21 12:53:06;;;;;;;3.25;1.90;;;;;;;;;;5005577;28;20045;-71
2022/09/21 12:55:33;;;;;;;2.55;1.50;;;;;;;;;;5006558;28;20042;-70
2022/09/21 12:58:13;;;;;;;2.13;1.70;;;;;;;;;;5013688;28;20128;-71
2022/09/21 13:00:42;;;;;;;;;;;;;;;;;;5013461;28;20132;-71
2022/09/21 13:03:13;;;;;;;2.80;1.52;;;;;;;;;;5013509;28;19929;-70
2022/09/21 13:05:41;;;;;;;1.52;1.42;;;;;;;;;;5012836;28;20045;-71
2022/09/21 13:08:12;;;;;;;1.85;1.75;;;;;;;;;;5010726;28;20030;-71
2022/09/21 13:10:40;;;;;;;;;;;;;;;;;;5013787;28;20049;-70
2022/09/21 13:13:22;;;;;;;2.65;1.60;;;;;;;;;;5009453;28;19957;-71
2022/09/21 13:15:50;;;;;;;4.15;1.60;;;;;;;;;;5008637;28;20093;-70
2022/09/21 13:18:34;;;;;;;2.75;1.42;;;;;;;;;;4993369;28;20077;-71
2022/09/21 13:21:28;;;;;;;1.50;1.40;;;;;;;;;;5003324;28;20046;-70
2022/09/21 13:24:03;;;;;;;1.17;1.17;;;;;;;;;;5002225;28;20042;-71
2022/09/21 13:26:34;;;;;;;1.75;1.23;;;;;;;;;;5003924;28;20068;-71
2022/09/21 13:29:05;;;;;;;1.45;1.25;;;;;;;;;;4993719;28;20073;-71
2022/09/21 13:31:45;;;;;;;1.40;0.80;;;;;;;;;;4995915;28;20034;-71
2022/09/21 13:34:21;;;;;;;0.80;0.80;;;;;;;;;;4995492;28;20129;-71
2022/09/21 13:37:07;;;;;;;1.20;1.10;;;;;;;;;;4992150;28;20046;-71
2022/09/21 13:39:34;;;;;;;1.67;1.27;;;;;;;;;;4994952;28;20050;-71
2022/09/21 13:42:20;;;;;;;1.20;1.10;;;;;;;;;;5005341;28;20129;-71
2022/09/21 13:44:48;;;;;;;1.00;1.00;;;;;;;;;;5010086;28;20046;-70
2022/09/21 13:47:27;;;;;;;1.00;1.00;;;;;;;;;;5008193;28;20045;-70
2022/09/21 13:49:55;;;;;;;1.08;1.08;;;;;;;;;;5005489;28;20069;-71
2022/09/21 13:52:29;;;;;;;1.45;1.10;;;;;;;;;;5000662;28;20042;-71
2022/09/21 13:55:01;;;;;;;1.20;1.20;;;;;;;;;;5010683;28;20041;-70
2022/09/21 13:57:31;;;;;;;1.00;1.00;;;;;;;;;;4996136;28;20038;-71
2022/09/21 14:00:03;;;;;;;3.05;1.20;;;;;;;;;;4993841;28;20057;-71
2022/09/21 14:02:41;;;;;;;1.30;1.20;;;;;;;;;;4990427;28;20097;-70
2022/09/21 14:05:19;;;;;;;2.70;1.00;;;;;;;;;;5001988;28;20046;-71
2022/09/21 14:07:47;;;;;;;1.15;1.15;;;;;;;;;;4995752;28;20132;-70
2022/09/21 14:10:18;;;;;;;1.33;1.15;;;;;;;;;;5008445;28;20034;-70
2022/09/21 14:12:46;;;;;;;3.92;1.20;;;;;;;;;;4990545;28;20061;-70
2022/09/21 14:15:17;;;;;;;2.25;1.30;;;;;;;;;;4999403;28;20124;-70
2022/09/21 14:17:45;;;;;;;1.10;1.00;;;;;;;;;;5006815;28;20062;-70
2022/09/21 14:20:29;;;;;;;1.40;1.10;;;;;;;;;;4987218;28;20112;-71
2022/09/21 14:23:15;;;;;;;1.38;0.90;;;;;;;;;;4997014;28;20456;-70
2022/09/21 14:26:00;;;;;;;1.33;1.13;;;;;;;;;;4990502;28;20054;-71
2022/09/21 14:28:33;;;;;;;1.70;1.70;;;;;;;;;;4987929;28;20073;-71
2022/09/21 14:31:02;;;;;;;0.93;0.90;;;;;;;;;;4987997;28;20050;-71
2022/09/21 14:33:32;;;;;;;1.13;1.00;;;;;;;;;;4995796;28;20041;-71
2022/09/21 14:36:02;;;;;;;0.98;0.98;;;;;;;;;;5007180;28;20467;-71
2022/09/21 14:38:34;;;;;;;0.77;0.70;;;;;;;;;;5009343;28;20034;-71
2022/09/21 14:41:06;;;;;;;1.45;0.75;;;;;;;;;;5008188;28;20417;-72
2022/09/21 14:43:35;;;;;;;1.15;0.80;;;;;;;;;;5006582;28;20128;-72
2022/09/21 14:46:27;;;;;;;0.50;0.50;;;;;;;;;;5007908;28;20045;-70
2022/09/21 14:48:54;;;;;;;;;;;;;;;;;;5003187;28;20041;-70
2022/09/21 14:51:22;;;;;;;1.50;0.68;;;;;;;;;;5008523;28;19926;-71
2022/09/21 14:53:58;;;;;;;0.63;0.63;;;;;;;;;;4991891;28;20144;-70
2022/09/21 14:56:34;;;;;;;0.73;0.68;;;;;;;;;;4991055;28;20034;-71
2022/09/21 14:59:20;;;;;;;1.52;0.70;;;;;;;;;;4992219;28;20046;-70
2022/09/21 15:02:02;;;;;;;0.90;0.90;;;;;;;;;;4988774;28;20414;-71
2022/09/21 15:04:52;;;;;;;0.95;0.95;;;;;;;;;;4999538;28;20502;-71
2022/09/21 15:11:00;;;;;;;1.05;1.00;;;;;;;;;;4961245;28;20065;-70
2022/09/21 15:13:41;;;;;;;1.65;1.05;;;;;;;;;;5002369;28;20041;-71
2022/09/21 15:16:08;;;;;;;3.70;1.63;;;;;;;;;;4992380;28;20128;-71
2022/09/21 15:18:44;;;;;;;1.30;1.20;;;;;;;;;;5004682;28;20053;-71